Time;durP1;ratioP1;P1;durP2;ratioP2;P2;SDS_P1;SDS_P2;PMS_P1;PMS_P2;Temp;Humidity;BMP_temperature;BMP_pressure;BME280_temperature;BME280_humidity;BME280_pressure;Samples;Min_cycle;Max_cycle;Signal;HPM_P1;HPM_P2
2023/09/07 00:02:10;;;;;;;10.40;6.70;;;;;;;13.76;100.00;94264.78;5090903;28;20044;-59
2023/09/07 00:04:38;;;;;;;10.18;6.60;;;;;;;13.91;100.00;94265.28;5090471;28;20051;-59
2023/09/07 00:07:04;;;;;;;17.55;11.25;;;;;;;13.74;100.00;94262.50;5076904;28;20055;-59
2023/09/07 00:09:31;;;;;;;16.50;10.57;;;;;;;13.86;100.00;94260.25;5090245;28;20523;-59
2023/09/07 00:11:58;;;;;;;10.77;7.00;;;;;;;13.85;100.00;94245.69;5090393;28;20050;-59
2023/09/07 00:14:25;;;;;;;9.35;6.50;;;;;;;13.90;100.00;94256.19;5089801;28;20641;-59
2023/09/07 00:16:51;;;;;;;9.20;6.25;;;;;;;13.95;100.00;94250.19;5090454;28;20043;-59
2023/09/07 00:19:18;;;;;;;9.55;6.25;;;;;;;13.98;100.00;94254.06;5098208;28;20036;-59
2023/09/07 00:21:45;;;;;;;9.90;6.20;;;;;;;13.99;100.00;94248.13;5095292;28;20395;-59
2023/09/07 00:24:12;;;;;;;9.37;6.23;;;;;;;14.00;100.00;94251.66;5090541;28;20088;-59
2023/09/07 00:26:39;;;;;;;8.05;5.70;;;;;;;13.99;100.00;94245.34;5089978;28;20047;-59
2023/09/07 00:29:06;;;;;;;9.20;5.75;;;;;;;14.02;100.00;94251.22;5090304;28;20048;-60
2023/09/07 00:31:33;;;;;;;9.82;6.47;;;;;;;13.80;100.00;94257.22;5089930;28;20431;-59
2023/09/07 00:34:00;;;;;;;10.00;6.43;;;;;;;13.85;100.00;94248.44;5088547;28;20040;-59
2023/09/07 00:36:27;;;;;;;9.10;6.00;;;;;;;13.86;100.00;94250.00;5089951;28;20047;-59
2023/09/07 00:38:53;;;;;;;10.93;6.88;;;;;;;13.88;100.00;94241.28;5076789;28;20044;-59
2023/09/07 00:41:20;;;;;;;10.32;6.93;;;;;;;13.91;100.00;94246.72;5069546;28;20044;-58
2023/09/07 00:43:47;;;;;;;8.88;6.10;;;;;;;13.71;100.00;94252.28;5070000;28;20393;-59
2023/09/07 00:46:15;;;;;;;11.57;6.50;;;;;;;13.59;100.00;94256.47;5069805;28;20044;-59
2023/09/07 00:48:42;;;;;;;9.30;6.33;;;;;;;13.59;100.00;94248.22;5069466;28;20094;-59
2023/09/07 00:51:09;;;;;;;10.18;6.82;;;;;;;13.18;100.00;94254.19;5051284;28;20043;-59
2023/09/07 00:53:36;;;;;;;10.25;6.20;;;;;;;13.42;100.00;94246.63;5053649;28;20051;-59
2023/09/07 00:56:03;;;;;;;8.90;6.20;;;;;;;13.36;100.00;94246.34;5069861;28;20044;-59
2023/09/07 00:58:30;;;;;;;9.25;5.82;;;;;;;13.34;100.00;94251.50;5069087;28;20101;-59
2023/09/07 01:00:59;;;;;;;9.37;6.20;;;;;;;13.45;100.00;94254.03;5068312;28;20409;-59
2023/09/07 01:03:26;;;;;;;9.75;6.05;;;;;;;13.52;100.00;94245.63;5068979;28;20105;-59
2023/09/07 01:06:17;;;;;;;10.82;6.50;;;;;;;13.31;100.00;94251.56;5069157;28;20040;-59
2023/09/07 01:08:51;;;;;;;9.90;6.10;;;;;;;13.31;100.00;94251.56;5068426;28;20580;-59
2023/09/07 01:11:26;;;;;;;9.52;6.18;;;;;;;13.39;100.00;94244.72;5069715;28;20048;-59
2023/09/07 01:13:56;;;;;;;9.13;5.83;;;;;;;13.10;100.00;94249.97;5068276;28;20774;-59
2023/09/07 01:16:23;;;;;;;11.75;6.05;;;;;;;13.13;100.00;94244.41;5069177;28;20052;-59
2023/09/07 01:18:51;;;;;;;9.55;6.00;;;;;;;13.17;100.00;94245.09;5069590;28;20397;-59
2023/09/07 01:21:19;;;;;;;10.73;6.25;;;;;;;13.20;100.00;94238.00;5069583;28;20073;-59
2023/09/07 01:23:46;;;;;;;11.55;6.82;;;;;;;12.79;100.00;94239.94;5088391;28;21804;-59
2023/09/07 01:26:13;;;;;;;9.70;6.10;;;;;;;12.97;100.00;94230.56;5089299;28;20533;-59
2023/09/07 01:28:41;;;;;;;9.60;6.70;;;;;;;12.79;100.00;94231.66;5089545;28;20044;-59
2023/09/07 01:31:09;;;;;;;9.48;5.78;;;;;;;12.94;100.00;94231.41;5074279;28;20413;-59
2023/09/07 01:33:37;;;;;;;10.63;6.10;;;;;;;12.99;100.00;94228.94;5068801;28;20462;-59
2023/09/07 01:36:04;;;;;;;9.93;6.30;;;;;;;12.96;100.00;94231.78;5069143;28;20105;-59
2023/09/07 01:38:31;;;;;;;9.03;5.80;;;;;;;12.77;100.00;94236.81;5068919;28;20059;-59
2023/09/07 01:40:58;;;;;;;9.98;6.07;;;;;;;12.42;100.00;94237.47;5069027;28;20384;-59
2023/09/07 01:43:25;;;;;;;8.70;5.57;;;;;;;12.53;100.00;94236.06;5068619;28;20041;-59
2023/09/07 01:45:52;;;;;;;10.75;6.20;;;;;;;12.51;100.00;94237.69;5069033;28;20040;-59
2023/09/07 01:48:18;;;;;;;12.45;5.93;;;;;;;12.36;100.00;94237.94;5068991;28;20040;-59
2023/09/07 01:50:45;;;;;;;9.17;5.80;;;;;;;12.50;100.00;94238.91;5068111;28;20490;-59
2023/09/07 01:53:12;;;;;;;10.02;5.90;;;;;;;12.57;100.00;94239.53;5068994;28;20051;-59
2023/09/07 01:55:38;;;;;;;9.13;6.10;;;;;;;12.45;100.00;94242.91;5068436;28;20045;-59
2023/09/07 01:58:05;;;;;;;10.13;6.40;;;;;;;12.44;100.00;94238.59;5069092;28;20086;-59
2023/09/07 02:00:37;;;;;;;11.77;6.75;;;;;;;12.51;100.00;94245.97;5068555;28;20049;-59
2023/09/07 02:03:04;;;;;;;10.03;6.50;;;;;;;12.53;100.00;94236.06;5068902;28;20062;-59
2023/09/07 02:05:32;;;;;;;12.48;7.10;;;;;;;12.55;100.00;94230.16;5068016;28;20045;-59
2023/09/07 02:07:59;;;;;;;9.15;6.50;;;;;;;12.57;100.00;94231.28;5068974;28;20048;-59
2023/09/07 02:10:26;;;;;;;9.80;6.75;;;;;;;12.55;100.00;94230.91;5067239;28;20041;-59
2023/09/07 02:12:53;;;;;;;11.68;6.30;;;;;;;12.57;100.00;94227.75;5068847;28;20049;-59
2023/09/07 02:15:19;;;;;;;21.90;12.60;;;;;;;12.53;100.00;94224.28;5068619;28;20045;-58
2023/09/07 02:17:46;;;;;;;15.35;9.38;;;;;;;12.56;100.00;94231.72;5068695;28;20052;-59
2023/09/07 02:20:14;;;;;;;12.32;8.07;;;;;;;12.56;100.00;94231.72;5058143;28;20098;-59
2023/09/07 02:22:40;;;;;;;10.80;6.47;;;;;;;12.38;100.00;94227.28;5048383;28;20049;-59
2023/09/07 02:25:07;;;;;;;11.80;7.05;;;;;;;12.42;100.00;94223.72;5065685;28;20045;-59
2023/09/07 02:27:35;;;;;;;12.77;7.37;;;;;;;12.29;100.00;94220.78;5070480;28;20052;-59
2023/09/07 02:30:03;;;;;;;11.95;7.30;;;;;;;12.43;100.00;94225.25;5068724;28;20439;-59
2023/09/07 02:32:32;;;;;;;13.48;7.45;;;;;;;12.44;100.00;94224.06;5068256;28;20504;-59
2023/09/07 02:34:58;;;;;;;12.63;7.10;;;;;;;12.38;100.00;94235.56;5068691;28;20040;-59
2023/09/07 02:37:25;;;;;;;11.45;7.50;;;;;;;12.35;100.00;94224.59;5068284;28;20045;-59
2023/09/07 02:39:52;;;;;;;14.53;7.87;;;;;;;12.36;100.00;94229.69;5072065;28;20058;-59
2023/09/07 02:42:19;;;;;;;11.43;7.40;;;;;;;12.27;100.00;94229.44;5072036;28;20054;-59
2023/09/07 02:44:46;;;;;;;12.35;7.97;;;;;;;12.24;100.00;94226.78;5071349;28;20871;-59
2023/09/07 02:47:12;;;;;;;11.77;7.75;;;;;;;12.02;100.00;94242.84;5071753;28;20044;-59
2023/09/07 02:49:40;;;;;;;12.63;8.05;;;;;;;12.11;100.00;94238.38;5071592;28;20052;-59
2023/09/07 02:52:07;;;;;;;12.67;7.67;;;;;;;12.09;100.00;94232.50;5072020;28;20041;-59
2023/09/07 02:54:34;;;;;;;12.80;7.78;;;;;;;12.02;100.00;94234.59;5071463;28;20037;-59
2023/09/07 02:57:00;;;;;;;11.75;7.70;;;;;;;11.98;100.00;94235.41;5070713;28;20040;-59
2023/09/07 02:59:27;;;;;;;11.20;7.68;;;;;;;12.03;100.00;94227.88;5071392;28;20485;-59
2023/09/07 03:01:54;;;;;;;11.10;7.63;;;;;;;11.99;100.00;94231.47;5072045;28;20040;-59
2023/09/07 03:04:21;;;;;;;11.67;7.77;;;;;;;11.95;100.00;94228.00;5071179;28;20044;-58
2023/09/07 03:06:47;;;;;;;12.32;8.18;;;;;;;12.02;100.00;94229.09;5071582;28;20051;-60
2023/09/07 03:09:14;;;;;;;12.18;8.18;;;;;;;12.01;100.00;94233.03;5071550;28;20515;-59
2023/09/07 03:11:41;;;;;;;13.77;8.32;;;;;;;12.03;100.00;94236.91;5071071;28;20731;-59
2023/09/07 03:14:07;;;;;;;14.70;8.65;;;;;;;12.04;100.00;94230.22;5071614;28;20404;-59
2023/09/07 03:16:34;;;;;;;10.87;7.53;;;;;;;11.96;100.00;94226.03;5071373;28;20044;-59
2023/09/07 03:19:01;;;;;;;13.02;8.18;;;;;;;11.93;100.00;94227.66;5069367;28;20494;-59
2023/09/07 03:21:29;;;;;;;13.35;8.60;;;;;;;11.98;100.00;94229.91;5053119;28;20394;-59
2023/09/07 03:23:57;;;;;;;15.18;8.80;;;;;;;11.57;100.00;94235.63;5060835;28;20436;-59
2023/09/07 03:26:24;;;;;;;15.55;8.18;;;;;;;11.76;100.00;94234.94;5071042;28;20048;-59
2023/09/07 03:28:52;;;;;;;15.20;8.13;;;;;;;11.85;100.00;94231.66;5071227;28;20074;-59
2023/09/07 03:31:18;;;;;;;13.18;8.60;;;;;;;11.80;100.00;94243.13;5071006;28;20099;-59
2023/09/07 03:33:45;;;;;;;11.70;8.07;;;;;;;11.86;100.00;94233.22;5070333;28;21614;-59
2023/09/07 03:36:14;;;;;;;13.45;8.00;;;;;;;11.88;100.00;94239.06;5071120;28;20408;-59
2023/09/07 03:38:43;;;;;;;12.75;8.43;;;;;;;11.87;100.00;94240.28;5070854;28;20041;-59
2023/09/07 03:41:10;;;;;;;13.93;8.47;;;;;;;11.85;100.00;94241.88;5071331;28;20048;-59
2023/09/07 03:43:36;;;;;;;12.45;8.10;;;;;;;11.83;100.00;94238.75;5070365;28;20046;-59
2023/09/07 03:46:03;;;;;;;12.55;8.52;;;;;;;11.79;100.00;94247.06;5071127;28;20046;-59
2023/09/07 03:48:30;;;;;;;13.30;8.60;;;;;;;11.80;100.00;94248.63;5070236;28;20040;-59
2023/09/07 03:50:57;;;;;;;11.82;8.23;;;;;;;11.72;100.00;94242.44;5070224;28;20049;-59
2023/09/07 03:53:25;;;;;;;14.17;9.33;;;;;;;11.54;100.00;94242.69;5070499;28;20059;-59
2023/09/07 03:55:52;;;;;;;12.27;7.95;;;;;;;11.58;100.00;94237.94;5057808;28;20089;-59
2023/09/07 03:58:19;;;;;;;14.30;8.60;;;;;;;11.52;100.00;94247.06;5069573;28;20077;-59
2023/09/07 04:00:45;;;;;;;14.52;9.13;;;;;;;11.51;100.00;94240.78;5069844;28;21647;-59
2023/09/07 04:03:12;;;;;;;13.35;8.45;;;;;;;11.55;100.00;94238.78;5070933;28;20048;-59
2023/09/07 04:05:39;;;;;;;14.70;8.50;;;;;;;11.59;100.00;94235.97;5068368;28;20048;-59
2023/09/07 04:08:07;;;;;;;14.18;8.35;;;;;;;11.62;100.00;94234.38;5070622;28;20521;-60
2023/09/07 04:10:37;;;;;;;13.55;9.15;;;;;;;11.59;100.00;94234.00;5069708;28;20051;-59
2023/09/07 04:13:05;;;;;;;13.77;8.50;;;;;;;11.51;100.00;94235.28;5070466;28;20110;-59
2023/09/07 04:15:34;;;;;;;12.60;8.40;;;;;;;11.49;100.00;94232.19;5069739;28;20074;-59
2023/09/07 04:18:01;;;;;;;12.87;8.47;;;;;;;11.53;100.00;94232.91;5070404;28;20086;-59
2023/09/07 04:20:29;;;;;;;11.73;8.10;;;;;;;11.53;100.00;94223.84;5055690;28;20119;-59
2023/09/07 04:22:56;;;;;;;12.90;8.25;;;;;;;11.48;100.00;94238.09;5051200;28;20049;-59
2023/09/07 04:25:22;;;;;;;12.13;7.97;;;;;;;11.47;100.00;94231.81;5069706;28;20048;-59
2023/09/07 04:27:49;;;;;;;12.02;7.72;;;;;;;11.45;100.00;94236.94;5076528;28;20040;-59
2023/09/07 04:30:16;;;;;;;13.00;8.60;;;;;;;11.44;100.00;94231.84;5070146;28;20049;-59
2023/09/07 04:32:43;;;;;;;11.45;7.40;;;;;;;11.36;100.00;94242.16;5069576;28;20033;-59
2023/09/07 04:35:10;;;;;;;13.75;8.18;;;;;;;11.37;100.00;94233.50;5068325;28;20094;-59
2023/09/07 04:37:37;;;;;;;14.88;7.85;;;;;;;11.41;100.00;94238.97;5069405;28;20513;-59
2023/09/07 04:40:06;;;;;;;13.75;7.70;;;;;;;11.41;100.00;94241.72;5069820;28;20102;-59
2023/09/07 04:42:32;;;;;;;14.87;8.27;;;;;;;11.32;100.00;94236.69;5069154;28;20146;-59
2023/09/07 04:44:59;;;;;;;12.63;8.10;;;;;;;11.35;100.00;94249.63;5069591;28;20056;-59
2023/09/07 04:47:26;;;;;;;12.85;7.85;;;;;;;11.42;100.00;94248.75;5069105;28;20040;-59
2023/09/07 04:49:53;;;;;;;11.85;7.65;;;;;;;11.42;100.00;94245.22;5069566;28;20029;-59
2023/09/07 04:52:20;;;;;;;13.43;8.43;;;;;;;11.23;100.00;94243.88;5069100;28;20052;-58
2023/09/07 04:54:46;;;;;;;12.20;7.63;;;;;;;11.33;100.00;94254.75;5068195;28;20044;-59
2023/09/07 04:57:19;;;;;;;13.88;7.78;;;;;;;11.43;100.00;94250.31;5069504;28;20522;-59
2023/09/07 04:59:46;;;;;;;11.90;7.72;;;;;;;11.48;100.00;94255.34;5068794;28;20133;-59
2023/09/07 05:02:13;;;;;;;12.52;7.68;;;;;;;11.45;100.00;94258.13;5068267;28;20041;-59
2023/09/07 05:04:40;;;;;;;13.30;8.18;;;;;;;11.48;100.00;94257.31;5068929;28;20048;-59
2023/09/07 05:07:06;;;;;;;13.23;7.90;;;;;;;11.47;100.00;94255.75;5069162;28;20045;-59
2023/09/07 05:09:33;;;;;;;12.35;7.50;;;;;;;11.51;100.00;94262.78;5067464;28;20678;-59
2023/09/07 05:12:00;;;;;;;12.70;7.90;;;;;;;11.55;100.00;94266.25;5069059;28;20054;-59
2023/09/07 05:14:27;;;;;;;12.52;8.07;;;;;;;11.59;100.00;94258.75;5068767;28;20044;-59
2023/09/07 05:16:55;;;;;;;12.93;7.90;;;;;;;11.54;100.00;94264.69;5069310;28;20043;-59
2023/09/07 05:19:22;;;;;;;12.93;7.60;;;;;;;11.57;100.00;94271.34;5061914;28;20053;-58
2023/09/07 05:21:49;;;;;;;13.95;8.10;;;;;;;11.62;100.00;94261.84;5055274;28;20432;-58
2023/09/07 05:24:16;;;;;;;12.20;8.05;;;;;;;11.57;100.00;94274.88;5068532;28;20040;-59
2023/09/07 05:26:43;;;;;;;13.23;8.38;;;;;;;11.45;100.00;94280.91;5068734;28;20036;-59
2023/09/07 05:29:12;;;;;;;13.18;7.97;;;;;;;11.53;100.00;94276.88;5072820;28;20043;-59
2023/09/07 05:31:38;;;;;;;13.23;8.00;;;;;;;11.51;100.00;94275.72;5068480;28;20036;-59
2023/09/07 05:34:05;;;;;;;15.55;8.65;;;;;;;11.52;100.00;94282.78;5069082;28;20043;-59
2023/09/07 05:36:32;;;;;;;13.70;7.95;;;;;;;11.63;100.00;94279.88;5068678;28;20500;-59
2023/09/07 05:38:59;;;;;;;14.07;7.60;;;;;;;11.68;100.00;94282.19;5067791;28;20056;-59
2023/09/07 05:41:26;;;;;;;11.63;7.63;;;;;;;11.80;100.00;94281.63;5068813;28;20044;-59
2023/09/07 05:43:52;;;;;;;12.50;7.80;;;;;;;11.92;100.00;94274.81;5068814;28;20515;-59
2023/09/07 05:46:19;;;;;;;14.82;8.32;;;;;;;11.97;100.00;94280.63;5068429;28;20048;-58
2023/09/07 05:48:46;;;;;;;11.68;8.05;;;;;;;11.86;100.00;94274.47;5068758;28;20040;-59
2023/09/07 05:51:13;;;;;;;12.68;8.00;;;;;;;11.79;100.00;94283.59;5068588;28;20041;-59
2023/09/07 05:53:40;;;;;;;13.77;7.80;;;;;;;11.79;100.00;94286.34;5050649;28;20048;-59
2023/09/07 05:56:06;;;;;;;11.27;7.63;;;;;;;11.93;100.00;94277.16;5069028;28;20040;-60
2023/09/07 05:58:33;;;;;;;11.40;8.05;;;;;;;12.06;100.00;94280.09;5068499;28;20053;-59
2023/09/07 06:01:01;;;;;;;14.30;8.38;;;;;;;12.24;100.00;94279.81;5068717;28;20079;-59
2023/09/07 06:03:28;;;;;;;13.52;8.32;;;;;;;12.27;100.00;94273.47;5068183;28;20070;-58
2023/09/07 06:05:55;;;;;;;13.18;8.40;;;;;;;12.24;100.00;94260.56;5050821;28;20123;-60
2023/09/07 06:08:21;;;;;;;14.00;8.70;;;;;;;12.35;100.00;94265.88;5048385;28;20049;-59
2023/09/07 06:10:49;;;;;;;16.08;8.63;;;;;;;12.51;100.00;94257.72;5066581;28;20543;-59
2023/09/07 06:13:15;;;;;;;13.93;8.27;;;;;;;12.42;100.00;94263.03;5069868;28;20036;-59
2023/09/07 06:15:42;;;;;;;13.85;8.70;;;;;;;12.44;100.00;94260.63;5072173;28;20045;-59
2023/09/07 06:18:09;;;;;;;14.90;9.00;;;;;;;12.49;100.00;94262.88;5061221;28;20048;-59
2023/09/07 06:20:36;;;;;;;13.23;8.10;;;;;;;12.56;100.00;94268.28;5071452;28;20093;-59
2023/09/07 06:23:02;;;;;;;15.13;8.32;;;;;;;12.70;100.00;94261.75;5071983;28;20052;-59
2023/09/07 06:25:29;;;;;;;15.13;9.57;;;;;;;12.68;100.00;94260.63;5071813;28;20045;-63
2023/09/07 06:27:56;;;;;;;16.73;8.98;;;;;;;12.80;100.00;94268.25;5075734;28;20063;-59
2023/09/07 06:30:23;;;;;;;16.40;9.85;;;;;;;12.90;100.00;94264.53;5072071;28;20045;-59
2023/09/07 06:32:51;;;;;;;14.57;9.30;;;;;;;12.97;100.00;94264.38;5072382;28;20047;-59
2023/09/07 06:35:18;;;;;;;14.30;8.80;;;;;;;13.22;100.00;94265.09;5072522;28;20443;-59
2023/09/07 06:37:45;;;;;;;15.35;8.38;;;;;;;13.42;100.00;94260.41;5071270;28;20521;-59
2023/09/07 06:40:13;;;;;;;16.00;9.05;;;;;;;13.58;100.00;94265.97;5072292;28;20040;-59
2023/09/07 06:42:40;;;;;;;14.32;9.00;;;;;;;13.68;100.00;94261.44;5071479;28;20053;-59
2023/09/07 06:45:08;;;;;;;15.93;8.93;;;;;;;13.91;100.00;94262.50;5072288;28;20048;-59
2023/09/07 06:47:35;;;;;;;13.57;8.38;;;;;;;14.09;100.00;94264.88;5071532;28;20067;-59
2023/09/07 06:50:02;;;;;;;14.82;8.32;;;;;;;14.64;100.00;94263.16;5071929;28;20530;-59
2023/09/07 06:52:29;;;;;;;11.02;7.55;;;;;;;17.88;100.00;94257.41;5071314;28;20045;-60
2023/09/07 06:54:56;;;;;;;13.43;7.40;;;;;;;20.43;100.00;94248.56;5072250;28;20062;-60
2023/09/07 06:57:22;;;;;;;11.80;7.10;;;;;;;21.32;100.00;94249.72;5071585;28;20449;-61
2023/09/07 06:59:49;;;;;;;9.93;6.95;;;;;;;23.71;96.00;94244.44;5071641;28;20097;-60
2023/09/07 07:02:16;;;;;;;9.95;6.35;;;;;;;25.71;83.24;94247.56;5071660;28;20087;-61
2023/09/07 07:04:45;;;;;;;10.23;6.35;;;;;;;27.70;71.07;94251.75;5071280;28;20047;-60
2023/09/07 07:07:12;;;;;;;9.30;6.65;;;;;;;27.70;63.64;94243.28;5057944;28;20051;-61
2023/09/07 07:09:39;;;;;;;7.83;6.30;;;;;;;25.77;70.01;94256.00;5051543;28;20045;-60
2023/09/07 07:12:06;;;;;;;10.45;6.50;;;;;;;24.96;77.00;94255.41;5071789;28;20056;-61
2023/09/07 07:14:33;;;;;;;8.77;6.70;;;;;;;25.28;77.45;94256.09;5071094;28;20056;-61
2023/09/07 07:17:01;;;;;;;9.35;6.85;;;;;;;25.67;73.72;94246.28;5071479;28;20570;-61
2023/09/07 07:19:28;;;;;;;9.00;6.90;;;;;;;26.47;70.61;94254.31;5070899;28;20043;-61
2023/09/07 07:21:55;;;;;;;8.53;6.37;;;;;;;27.88;63.45;94253.97;5071448;28;20048;-61
2023/09/07 07:24:22;;;;;;;9.07;6.88;;;;;;;28.17;57.91;94254.56;5070292;28;20055;-60
2023/09/07 07:26:49;;;;;;;9.38;6.28;;;;;;;27.47;61.89;94251.84;5071092;28;20040;-61
2023/09/07 07:29:15;;;;;;;7.97;6.60;;;;;;;27.57;63.41;94254.34;5059248;28;20489;-61
2023/09/07 07:31:42;;;;;;;8.48;6.50;;;;;;;28.86;58.40;94261.97;5070895;28;20045;-61
2023/09/07 07:34:09;;;;;;;10.00;5.87;;;;;;;29.25;55.97;94255.16;5071390;28;20123;-60
2023/09/07 07:36:36;;;;;;;9.25;6.80;;;;;;;28.86;56.46;94256.31;5070280;28;20394;-60
2023/09/07 07:39:03;;;;;;;9.25;5.65;;;;;;;29.98;53.51;94256.34;5071245;28;20391;-60
2023/09/07 07:41:30;;;;;;;9.80;5.90;;;;;;;29.62;53.75;94255.75;5070739;28;20043;-61
2023/09/07 07:43:57;;;;;;;7.35;5.50;;;;;;;30.09;52.36;94263.91;5071078;28;20056;-61
2023/09/07 07:46:24;;;;;;;7.43;5.30;;;;;;;31.15;50.79;94246.50;5070488;28;20048;-60
2023/09/07 07:48:51;;;;;;;7.35;5.63;;;;;;;30.88;48.40;94251.38;5070749;28;20047;-60
2023/09/07 07:51:18;;;;;;;7.45;5.32;;;;;;;30.07;51.07;94252.38;5069349;28;20036;-60
2023/09/07 07:53:45;;;;;;;9.68;5.20;;;;;;;31.24;48.30;94250.97;5069904;28;20040;-61
2023/09/07 07:56:18;;;;;;;8.35;5.50;;;;;;;30.65;48.94;94253.81;5070449;28;20045;-61
2023/09/07 07:58:45;;;;;;;6.87;5.67;;;;;;;29.99;51.12;94248.63;5069845;28;20835;-61
2023/09/07 08:01:17;;;;;;;7.68;5.75;;;;;;;29.56;52.91;94249.41;5070698;28;20499;-60
2023/09/07 08:03:44;;;;;;;8.57;5.63;;;;;;;30.35;52.04;94246.31;5070170;28;20400;-60
2023/09/07 08:06:11;;;;;;;7.10;5.15;;;;;;;32.44;47.92;94242.28;5065200;28;20661;-60
2023/09/07 08:08:39;;;;;;;5.95;5.00;;;;;;;33.99;43.86;94239.97;5049802;28;20044;-61
2023/09/07 08:11:06;;;;;;;7.43;4.97;;;;;;;34.66;41.16;94239.22;5062779;28;20125;-61
2023/09/07 08:13:34;;;;;;;7.50;5.70;;;;;;;32.07;44.82;94243.38;5069857;28;20052;-61
2023/09/07 08:16:02;;;;;;;7.30;5.30;;;;;;;32.83;43.88;94241.31;5069837;28;20286;-61
2023/09/07 08:18:31;;;;;;;5.90;5.10;;;;;;;32.83;43.94;94246.22;5069638;28;20400;-61
2023/09/07 08:20:58;;;;;;;7.88;5.30;;;;;;;32.77;43.76;94245.63;5070108;28;20048;-61
2023/09/07 08:23:25;;;;;;;7.73;5.50;;;;;;;33.22;42.67;94241.63;5069546;28;20043;-61
2023/09/07 08:25:52;;;;;;;6.55;5.75;;;;;;;31.04;49.22;94241.03;5070450;28;20045;-61
2023/09/07 08:28:20;;;;;;;8.05;5.80;;;;;;;32.00;46.58;94234.22;5081120;28;20054;-61
2023/09/07 08:30:50;;;;;;;8.57;5.40;;;;;;;31.66;46.91;94234.19;5069233;28;20396;-61
2023/09/07 08:33:17;;;;;;;6.72;5.50;;;;;;;33.54;43.71;94223.41;5070146;28;20098;-61
2023/09/07 08:35:44;;;;;;;5.87;5.20;;;;;;;32.90;42.61;94230.56;5069139;28;20400;-61
2023/09/07 08:38:11;;;;;;;7.20;5.40;;;;;;;34.52;40.48;94235.00;5069876;28;20055;-61
2023/09/07 08:40:40;;;;;;;6.20;4.85;;;;;;;36.34;37.48;94236.59;5069217;28;20089;-60
2023/09/07 08:43:09;;;;;;;7.47;4.93;;;;;;;37.06;35.04;94228.50;5069854;28;20048;-61
2023/09/07 08:45:47;;;;;;;8.20;5.05;;;;;;;34.66;38.21;94232.75;5069278;28;20397;-59
2023/09/07 08:48:17;;;;;;;7.03;4.90;;;;;;;34.32;38.87;94233.81;5069831;28;20511;-59
2023/09/07 08:50:49;;;;;;;6.55;5.10;;;;;;;34.64;37.26;94233.28;5069075;28;20047;-60
2023/09/07 08:53:19;;;;;;;8.10;4.88;;;;;;;34.22;38.40;94233.59;5069807;28;20093;-60
2023/09/07 08:55:48;;;;;;;6.10;4.90;;;;;;;35.06;37.82;94218.69;5068774;28;21533;-60
2023/09/07 08:58:15;;;;;;;6.10;4.75;;;;;;;36.36;36.07;94222.50;5069707;28;20410;-60
2023/09/07 09:00:43;;;;;;;10.00;4.83;;;;;;;36.12;36.94;94221.06;5069128;28;20396;-61
2023/09/07 09:03:10;;;;;;;6.28;5.25;;;;;;;35.19;36.46;94227.06;5069565;28;20090;-61
2023/09/07 09:05:41;;;;;;;7.95;4.90;;;;;;;35.57;36.07;94220.50;5067716;28;20469;-60
2023/09/07 09:08:08;;;;;;;6.13;4.65;;;;;;;37.69;32.72;94213.03;5051608;28;20045;-61
2023/09/07 09:10:39;;;;;;;6.90;4.85;;;;;;;35.99;35.54;94224.94;5055784;28;20037;-60
2023/09/07 09:13:05;;;;;;;7.03;4.80;;;;;;;36.30;34.51;94221.94;5063785;28;20074;-60
2023/09/07 09:15:32;;;;;;;6.07;4.68;;;;;;;36.12;34.50;94221.06;5068968;28;20504;-60
2023/09/07 09:18:09;;;;;;;6.93;4.55;;;;;;;34.34;34.66;94219.75;5069302;28;20036;-61
2023/09/07 09:20:38;;;;;;;5.20;4.70;;;;;;;33.69;37.15;94214.22;5068720;28;20492;-60
2023/09/07 09:23:05;;;;;;;8.70;5.00;;;;;;;35.92;34.89;94206.53;5068978;28;20105;-60
2023/09/07 09:25:31;;;;;;;5.93;4.87;;;;;;;35.21;35.12;94217.91;5068734;28;20049;-61
2023/09/07 09:27:58;;;;;;;6.30;4.60;;;;;;;35.57;34.34;94206.22;5074808;28;20040;-60
2023/09/07 09:30:25;;;;;;;5.72;4.50;;;;;;;34.35;37.05;94209.88;5068990;28;20048;-60
2023/09/07 09:32:52;;;;;;;7.13;4.95;;;;;;;34.11;36.59;94211.91;5068962;28;20046;-59
2023/09/07 09:35:19;;;;;;;6.80;4.30;;;;;;;36.24;34.38;94201.41;5068900;28;20048;-61
2023/09/07 09:37:48;;;;;;;6.50;4.70;;;;;;;36.32;34.14;94202.91;5068111;28;20236;-61
2023/09/07 09:40:16;;;;;;;5.60;4.63;;;;;;;36.08;34.41;94204.34;5069039;28;20045;-61
2023/09/07 09:42:44;;;;;;;6.45;4.40;;;;;;;38.86;31.31;94214.53;5068469;28;20045;-61
2023/09/07 09:45:12;;;;;;;6.75;4.50;;;;;;;39.46;29.49;94216.22;5068890;28;20084;-61
2023/09/07 09:47:41;;;;;;;7.00;4.90;;;;;;;37.98;30.71;94207.53;5068609;28;20051;-61
2023/09/07 09:50:10;;;;;;;7.07;4.47;;;;;;;38.12;30.91;94202.22;5072874;28;20051;-61
2023/09/07 09:52:38;;;;;;;5.88;4.50;;;;;;;37.78;31.14;94204.50;5072725;28;20515;-61
2023/09/07 09:55:07;;;;;;;5.20;4.53;;;;;;;36.54;32.31;94198.38;5072905;28;20029;-61
2023/09/07 09:57:35;;;;;;;6.05;4.57;;;;;;;35.51;34.27;94197.13;5072713;28;20467;-60
2023/09/07 10:00:25;;;;;;;5.88;4.50;;;;;;;37.57;32.25;94193.47;5072947;28;20052;-60
2023/09/07 10:03:11;;;;;;;5.67;4.40;;;;;;;39.57;30.05;94194.78;5072143;28;20271;-62
2023/09/07 10:05:38;;;;;;;5.82;4.25;;;;;;;40.98;27.96;94189.84;5071974;28;20481;-59
2023/09/07 10:08:13;;;;;;;6.00;4.05;;;;;;;40.96;27.70;94190.47;5071519;28;20041;-60
2023/09/07 10:10:42;;;;;;;4.63;3.90;;;;;;;42.80;25.88;94186.69;5072386;28;20046;-60
2023/09/07 10:13:09;;;;;;;4.93;4.05;;;;;;;42.06;25.81;94185.66;5072685;28;20052;-60
2023/09/07 10:15:36;;;;;;;5.33;3.97;;;;;;;41.65;26.08;94191.56;5072328;28;20442;-60
2023/09/07 10:18:08;;;;;;;6.35;3.95;;;;;;;42.13;24.95;94183.91;5072632;28;20040;-60
2023/09/07 10:20:57;;;;;;;5.28;4.05;;;;;;;40.70;26.56;94184.34;5072154;28;20055;-60
2023/09/07 10:23:36;;;;;;;5.18;4.00;;;;;;;41.74;25.27;94174.81;5072052;28;20501;-60
2023/09/07 10:26:05;;;;;;;6.57;4.60;;;;;;;39.16;27.71;94175.22;5072370;28;20386;-60
2023/09/07 10:28:33;;;;;;;6.43;4.90;;;;;;;34.61;34.25;94178.19;5084436;28;20052;-61
2023/09/07 10:31:12;;;;;;;6.40;4.90;;;;;;;35.11;34.04;94171.31;5072507;28;20043;-60
2023/09/07 10:33:40;;;;;;;4.85;4.25;;;;;;;37.41;31.71;94163.50;5071926;28;20052;-60
2023/09/07 10:36:07;;;;;;;4.95;4.00;;;;;;;39.57;29.33;94169.69;5070918;28;20044;-60
2023/09/07 10:38:35;;;;;;;5.40;4.57;;;;;;;36.38;31.22;94165.50;5070586;28;20043;-60
2023/09/07 10:41:04;;;;;;;5.47;4.67;;;;;;;36.19;33.10;94163.16;5072194;28;20049;-60
2023/09/07 10:43:32;;;;;;;5.32;4.30;;;;;;;40.79;28.43;94161.91;5071634;28;20047;-60
2023/09/07 10:46:01;;;;;;;5.32;4.43;;;;;;;39.58;28.14;94158.97;5072338;28;20041;-60
2023/09/07 10:48:30;;;;;;;5.57;4.20;;;;;;;40.85;27.01;94165.22;5071281;28;20048;-60
2023/09/07 10:50:57;;;;;;;6.60;4.10;;;;;;;42.05;25.78;94163.19;5072004;28;20101;-60
2023/09/07 10:53:28;;;;;;;6.23;4.00;;;;;;;41.62;25.36;94160.38;5071375;28;20101;-60
2023/09/07 10:55:58;;;;;;;5.25;4.10;;;;;;;40.58;27.34;94157.59;5072038;28;20058;-60
2023/09/07 10:58:27;;;;;;;6.25;4.10;;;;;;;40.86;26.98;94153.09;5071370;28;20052;-60
2023/09/07 11:00:56;;;;;;;5.15;3.95;;;;;;;40.57;26.87;94153.22;5071719;28;20040;-60
2023/09/07 11:03:26;;;;;;;5.22;3.90;;;;;;;40.69;27.02;94147.53;5070307;28;20055;-60
2023/09/07 11:05:59;;;;;;;4.17;3.67;;;;;;;41.42;25.22;94146.09;5071215;28;20048;-60
2023/09/07 11:08:31;;;;;;;6.40;4.25;;;;;;;38.83;27.46;94151.84;5071169;28;20101;-60
2023/09/07 11:10:58;;;;;;;5.43;4.20;;;;;;;39.21;27.04;94148.34;5071575;28;20040;-60
2023/09/07 11:13:26;;;;;;;4.63;3.78;;;;;;;39.84;27.17;94135.03;5071273;28;20501;-60
2023/09/07 11:15:57;;;;;;;4.55;3.80;;;;;;;40.21;26.15;94140.59;5071692;28;20045;-60
2023/09/07 11:18:25;;;;;;;4.77;3.70;;;;;;;37.66;29.06;94143.38;5071097;28;20416;-60
2023/09/07 11:20:53;;;;;;;5.07;4.00;;;;;;;35.79;31.01;94136.13;5071543;28;20044;-60
2023/09/07 11:23:21;;;;;;;5.47;4.50;;;;;;;33.26;35.64;94133.94;5071378;28;20399;-59
2023/09/07 11:25:49;;;;;;;7.68;4.50;;;;;;;33.61;34.04;94138.09;5071382;28;20043;-59
2023/09/07 11:28:19;;;;;;;5.60;4.55;;;;;;;33.76;35.30;94128.09;5072907;28;20045;-60